createdAt,value
2022-08-27T00:03:15.730Z,7.60
2022-08-27T00:08:20.144Z,7.33
2022-08-27T00:13:23.148Z,9.23
2022-08-27T00:18:26.398Z,8.70
2022-08-27T00:23:31.709Z,8.87
2022-08-27T00:28:35.872Z,7.90
2022-08-27T00:33:38.887Z,6.87
2022-08-27T00:38:43.406Z,5.60
2022-08-27T00:43:49.692Z,5.33
2022-08-27T00:48:54.644Z,4.70
2022-08-27T00:54:00.158Z,5.90
2022-08-27T00:59:04.151Z,5.90
2022-08-27T01:04:07.278Z,5.30
2022-08-27T01:09:18.111Z,5.13
2022-08-27T01:14:21.239Z,4.40
2022-08-27T01:19:30.229Z,4.67
2022-08-27T01:24:37.761Z,4.47
2022-08-27T01:29:41.268Z,4.90
2022-08-27T01:34:45.163Z,4.40
2022-08-27T01:39:49.602Z,4.53
2022-08-27T01:44:55.735Z,5.30
2022-08-27T01:49:58.766Z,4.60
2022-08-27T01:55:03.412Z,5.30
2022-08-27T02:00:09.509Z,4.53
2022-08-27T02:05:39.322Z,4.43
2022-08-27T02:10:51.484Z,4.60
2022-08-27T02:15:55.100Z,4.80
2022-08-27T02:20:58.166Z,4.60
2022-08-27T02:26:02.690Z,4.83
2022-08-27T02:31:06.237Z,5.17
2022-08-27T02:36:09.759Z,4.40
2022-08-27T02:41:14.383Z,4.83
2022-08-27T02:46:17.412Z,4.90
2022-08-27T02:51:20.465Z,5.10
2022-08-27T02:56:24.845Z,6.33
2022-08-27T03:01:28.162Z,6.07
2022-08-27T03:06:31.800Z,5.87
2022-08-27T03:11:36.171Z,6.20
2022-08-27T03:16:39.815Z,8.47
2022-08-27T03:21:42.965Z,8.47
2022-08-27T03:26:59.274Z,10.53
2022-08-27T03:32:02.584Z,12.67
2022-08-27T03:37:05.776Z,13.97
2022-08-27T03:42:10.557Z,11.63
2022-08-27T03:47:13.576Z,13.60
2022-08-27T03:52:17.101Z,12.73
2022-08-27T03:57:21.586Z,12.37
2022-08-27T04:02:24.779Z,10.80
2022-08-27T04:07:28.208Z,12.50
2022-08-27T04:12:32.642Z,10.93
2022-08-27T04:17:35.688Z,10.47
2022-08-27T04:22:39.477Z,12.23
2022-08-27T04:27:44.495Z,12.50
2022-08-27T04:32:47.549Z,10.53
2022-08-27T04:37:50.628Z,9.70
2022-08-27T04:42:55.588Z,8.30
2022-08-27T04:47:58.592Z,6.73
2022-08-27T04:53:02.143Z,5.10
2022-08-27T04:58:08.921Z,10.40
2022-08-27T05:03:12.007Z,12.73
2022-08-27T05:08:15.354Z,9.53
2022-08-27T05:13:21.418Z,9.33
2022-08-27T05:18:24.448Z,8.90
2022-08-27T05:23:28.150Z,12.67
2022-08-27T05:28:32.495Z,13.83
2022-08-27T05:33:35.715Z,17.07
2022-08-27T05:38:38.723Z,16.40
2022-08-27T05:43:49.119Z,18.23
2022-08-27T05:48:58.183Z,18.97
2022-08-27T05:54:08.041Z,19.50
2022-08-27T05:59:30.541Z,18.30
2022-08-27T06:04:33.546Z,16.30
2022-08-27T06:09:36.935Z,14.13
2022-08-27T06:14:41.367Z,15.80
2022-08-27T06:19:45.837Z,13.23
2022-08-27T06:24:48.856Z,11.60
2022-08-27T06:29:53.319Z,11.23
2022-08-27T06:34:56.534Z,10.73
2022-08-27T06:39:59.638Z,11.87
2022-08-27T06:45:04.366Z,12.30
2022-08-27T06:50:08.124Z,11.83
2022-08-27T06:55:11.962Z,13.07
2022-08-27T07:00:16.861Z,12.80
2022-08-27T07:05:20.077Z,12.10
2022-08-27T07:10:23.155Z,12.07
2022-08-27T07:15:28.018Z,11.30
2022-08-27T07:20:35.107Z,11.77
2022-08-27T07:25:38.186Z,10.17
2022-08-27T07:30:42.973Z,10.40
2022-08-27T07:35:47.078Z,9.53
2022-08-27T07:40:52.365Z,9.90
2022-08-27T07:45:58.260Z,10.40
2022-08-27T07:51:03.383Z,9.53
2022-08-27T07:56:07.970Z,10.13
2022-08-27T08:01:12.612Z,10.70
2022-08-27T08:06:17.764Z,9.50
2022-08-27T08:11:21.507Z,8.10
2022-08-27T08:16:31.473Z,8.53
2022-08-27T08:21:35.362Z,7.83
2022-08-27T08:26:38.341Z,9.03
2022-08-27T08:31:43.286Z,8.40
2022-08-27T08:36:54.665Z,8.80
2022-08-27T08:42:00.333Z,8.33
2022-08-27T08:47:10.549Z,7.43
2022-08-27T08:52:31.543Z,8.03
2022-08-27T08:57:40.475Z,8.10
2022-08-27T09:02:52.355Z,8.00
2022-08-27T09:08:28.407Z,9.10
2022-08-27T09:13:28.860Z,7.63
2022-08-27T09:18:37.029Z,7.77
2022-08-27T09:23:52.530Z,8.70
2022-08-27T09:29:22.743Z,8.40
2022-08-27T09:34:34.782Z,8.73
2022-08-27T09:39:46.971Z,8.10
2022-08-27T09:44:53.568Z,7.27
2022-08-27T09:50:09.878Z,7.43
2022-08-27T09:55:13.081Z,8.87
2022-08-27T10:00:19.635Z,11.70
2022-08-27T10:05:29.662Z,8.60
2022-08-27T10:10:54.045Z,8.67
2022-08-27T10:16:16.155Z,9.67
2022-08-27T10:21:30.821Z,8.03
2022-08-27T10:26:45.708Z,7.83
2022-08-27T10:31:59.740Z,7.07
2022-08-27T10:37:19.669Z,6.43
2022-08-27T10:42:29.584Z,6.07
2022-08-27T10:47:56.617Z,5.60
2022-08-27T10:53:07.243Z,5.57
2022-08-27T10:58:27.610Z,5.10
2022-08-27T11:03:37.374Z,5.20
2022-08-27T11:08:50.998Z,6.03
2022-08-27T11:14:01.202Z,5.87
2022-08-27T11:19:14.019Z,6.00
2022-08-27T11:24:30.891Z,5.43
2022-08-27T11:29:45.647Z,7.43
2022-08-27T11:34:55.999Z,7.60
2022-08-27T11:40:20.910Z,8.23
2022-08-27T11:45:30.924Z,6.03
2022-08-27T11:50:34.069Z,6.07
2022-08-27T11:55:40.628Z,6.57
2022-08-27T12:00:44.469Z,8.37
2022-08-27T12:05:49.865Z,9.10
2022-08-27T12:11:21.336Z,8.43
2022-08-27T12:16:35.397Z,9.63
2022-08-27T12:21:50.618Z,7.23
2022-08-27T12:27:01.163Z,7.97
2022-08-27T12:32:12.612Z,7.00
2022-08-27T12:37:15.913Z,8.63
2022-08-27T12:42:23.422Z,10.03
2022-08-27T12:47:27.219Z,9.87
2022-08-27T12:52:46.317Z,9.20
2022-08-27T12:58:01.515Z,8.90
2022-08-27T13:03:27.645Z,9.20
2022-08-27T13:08:32.903Z,8.60
2022-08-27T13:13:37.572Z,9.20
2022-08-27T13:18:41.549Z,8.10
2022-08-27T13:23:55.217Z,11.37
2022-08-27T13:29:03.532Z,11.20
2022-08-27T13:34:08.196Z,9.40
2022-08-27T13:39:11.281Z,9.13
2022-08-27T13:44:20.297Z,9.03
2022-08-27T13:49:25.762Z,9.57
2022-08-27T13:54:29.548Z,10.10
2022-08-27T13:59:33.972Z,9.33
2022-08-27T14:04:39.971Z,10.90
2022-08-27T14:09:51.303Z,12.43
2022-08-27T14:15:00.554Z,13.03
2022-08-27T14:20:06.646Z,12.63
2022-08-27T14:25:13.237Z,12.77
2022-08-27T14:30:19.741Z,14.00
2022-08-27T14:35:28.423Z,14.00
2022-08-27T14:40:31.660Z,13.50
2022-08-27T14:45:39.681Z,13.43
2022-08-27T14:50:43.549Z,13.50
2022-08-27T14:55:51.552Z,12.40
2022-08-27T15:00:57.789Z,12.20
2022-08-27T15:06:00.822Z,11.80
2022-08-27T15:11:03.962Z,13.40
2022-08-27T15:16:08.562Z,12.43
2022-08-27T15:21:11.732Z,12.97
2022-08-27T15:26:14.869Z,26.07
2022-08-27T15:31:19.662Z,17.10
2022-08-27T15:36:22.782Z,13.90
2022-08-27T15:41:29.123Z,12.27
2022-08-27T15:46:34.234Z,12.40
2022-08-27T15:51:38.168Z,12.87
2022-08-27T15:56:41.206Z,12.83
2022-08-27T16:01:45.764Z,13.17
2022-08-27T16:06:49.766Z,16.60
2022-08-27T16:11:52.826Z,26.10
2022-08-27T16:16:58.702Z,12.10
2022-08-27T16:22:01.684Z,11.13
2022-08-27T16:27:05.179Z,15.63
2022-08-27T16:32:14.435Z,9.90
2022-08-27T16:37:17.595Z,10.07
2022-08-27T16:42:22.010Z,10.33
2022-08-27T16:47:26.512Z,11.13
2022-08-27T16:52:30.155Z,9.80
2022-08-27T16:57:33.128Z,10.70
2022-08-27T17:02:38.061Z,11.20
2022-08-27T17:07:41.108Z,9.73
2022-08-27T17:12:48.583Z,9.77
2022-08-27T17:17:52.942Z,9.17
2022-08-27T17:22:56.685Z,9.60
2022-08-27T17:28:00.589Z,9.80
2022-08-27T17:33:05.394Z,10.50
2022-08-27T17:38:09.680Z,11.53
2022-08-27T17:43:12.729Z,11.43
2022-08-27T17:48:18.048Z,12.60
2022-08-27T17:53:22.420Z,11.40
2022-08-27T17:58:26.189Z,11.47
2022-08-27T18:03:30.636Z,10.80
2022-08-27T18:08:50.603Z,11.63
2022-08-27T18:13:56.438Z,12.90
2022-08-27T18:19:00.857Z,13.17
2022-08-27T18:24:07.267Z,11.93
2022-08-27T18:29:11.049Z,9.87
2022-08-27T18:34:20.065Z,8.80
2022-08-27T18:39:25.667Z,8.37
2022-08-27T18:44:29.080Z,8.07
2022-08-27T18:49:33.937Z,8.00
2022-08-27T18:54:37.096Z,8.37
2022-08-27T18:59:40.312Z,8.23
2022-08-27T19:04:45.874Z,7.60
2022-08-27T19:09:49.050Z,8.70
2022-08-27T19:14:52.347Z,9.70
2022-08-27T19:19:57.714Z,8.30
2022-08-27T19:25:01.063Z,8.63
2022-08-27T19:30:04.625Z,6.43
2022-08-27T19:35:11.221Z,7.43
2022-08-27T19:40:16.006Z,6.70
2022-08-27T19:45:21.951Z,6.70
2022-08-27T19:50:27.890Z,6.50
2022-08-27T19:55:31.051Z,5.57
2022-08-27T20:00:34.163Z,5.40
2022-08-27T20:05:39.423Z,36.53
2022-08-27T20:10:42.843Z,13.77
2022-08-27T20:15:46.184Z,6.23
2022-08-27T20:20:52.599Z,5.33
2022-08-27T20:26:01.101Z,6.50
2022-08-27T20:31:04.594Z,5.60
2022-08-27T20:36:09.782Z,5.30
2022-08-27T20:41:12.800Z,7.17
2022-08-27T20:46:16.363Z,7.50
2022-08-27T20:51:21.093Z,7.40
2022-08-27T20:56:24.216Z,6.50
2022-08-27T21:01:27.431Z,6.03
2022-08-27T21:06:33.592Z,4.57
2022-08-27T21:11:36.669Z,4.83
2022-08-27T21:16:39.706Z,4.30
2022-08-27T21:21:44.190Z,4.80
2022-08-27T21:26:47.611Z,4.70
2022-08-27T21:31:51.744Z,4.10
2022-08-27T21:36:56.202Z,4.70
2022-08-27T21:42:00.725Z,4.20
2022-08-27T21:47:03.971Z,5.43
2022-08-27T21:52:08.543Z,5.30
2022-08-27T21:57:14.878Z,4.83
2022-08-27T22:02:38.860Z,5.20
2022-08-27T22:07:44.013Z,4.50
2022-08-27T22:12:47.221Z,4.40
2022-08-27T22:17:51.399Z,4.80
2022-08-27T22:22:57.083Z,4.63
2022-08-27T22:28:00.140Z,4.60
2022-08-27T22:33:03.212Z,4.73
2022-08-27T22:38:08.204Z,5.40
2022-08-27T22:43:12.103Z,4.80
2022-08-27T22:48:15.208Z,4.67
2022-08-27T22:53:19.628Z,5.47
2022-08-27T22:58:24.381Z,5.60
2022-08-27T23:03:28.276Z,6.10
2022-08-27T23:08:32.688Z,6.40
2022-08-27T23:13:35.775Z,6.57
2022-08-27T23:18:39.879Z,6.40
2022-08-27T23:23:44.335Z,7.37
2022-08-27T23:28:47.626Z,8.50
2022-08-27T23:33:53.684Z,8.30
2022-08-27T23:38:58.617Z,7.80
2022-08-27T23:44:01.980Z,7.43
2022-08-27T23:49:05.374Z,7.53
2022-08-27T23:54:10.171Z,7.13
2022-08-27T23:59:13.196Z,7.90
